createdAt,value
2023-05-08T00:01:24.581Z,101250.34
2023-05-08T00:04:26.190Z,101258.66
2023-05-08T00:07:27.704Z,101261.38
2023-05-08T00:10:29.806Z,101256.94
2023-05-08T00:13:31.298Z,101254.22
2023-05-08T00:16:32.902Z,101259.81
2023-05-08T00:19:34.399Z,101259.81
2023-05-08T00:22:36.287Z,101260.81
2023-05-08T00:25:37.771Z,101265.41
2023-05-08T00:28:39.247Z,101261.97
2023-05-08T00:31:40.748Z,101260.13
2023-05-08T00:34:42.684Z,101261.13
2023-05-08T00:37:44.153Z,101261.13
2023-05-08T00:40:46.018Z,101264.88
2023-05-08T00:43:47.504Z,101263.13
2023-05-08T00:46:49.237Z,101266.56
2023-05-08T00:49:53.417Z,101264.88
2023-05-08T00:52:56.687Z,101263.00
2023-05-08T00:55:59.386Z,101258.41
2023-05-08T00:59:01.522Z,101255.84
2023-05-08T01:02:03.836Z,101251.25
2023-05-08T01:05:06.266Z,101243.94
2023-05-08T01:08:07.821Z,101248.53
2023-05-08T01:11:15.281Z,101247.69
2023-05-08T01:14:38.800Z,101245.66
2023-05-08T01:17:52.748Z,101246.69
2023-05-08T01:21:20.781Z,101250.41
2023-05-08T01:24:32.171Z,101244.97
2023-05-08T01:28:01.627Z,101238.66
2023-05-08T01:31:07.911Z,101238.81
2023-05-08T01:34:21.264Z,101243.25
2023-05-08T01:37:32.847Z,101244.97
2023-05-08T01:40:44.672Z,101243.25
2023-05-08T01:43:53.623Z,101238.81
2023-05-08T01:46:55.905Z,101239.81
2023-05-08T01:50:16.468Z,101246.97
2023-05-08T01:53:36.745Z,101244.25
2023-05-08T01:56:41.292Z,101242.69
2023-05-08T01:59:44.456Z,101248.13
2023-05-08T02:02:47.804Z,101249.13
2023-05-08T02:05:51.658Z,101247.28
2023-05-08T02:08:57.636Z,101246.41
2023-05-08T02:12:01.098Z,101245.41
2023-05-08T02:15:03.974Z,101250.00
2023-05-08T02:18:08.553Z,101250.00
2023-05-08T02:21:12.693Z,101247.28
2023-05-08T02:24:15.080Z,101244.56
2023-05-08T02:27:17.432Z,101247.44
2023-05-08T02:30:21.095Z,101248.28
2023-05-08T02:33:23.119Z,101247.44
2023-05-08T02:36:28.410Z,101243.69
2023-05-08T02:39:35.093Z,101239.28
2023-05-08T02:42:37.809Z,101239.28
2023-05-08T02:46:24.753Z,101237.41
2023-05-08T02:49:36.428Z,101239.28
2023-05-08T02:52:47.202Z,101230.25
2023-05-08T02:55:53.546Z,101234.84
2023-05-08T02:59:14.456Z,101233.81
2023-05-08T03:02:23.457Z,101228.38
2023-05-08T03:05:38.314Z,101223.78
2023-05-08T03:08:42.000Z,101230.09
2023-05-08T03:11:47.240Z,101221.94
2023-05-08T03:15:04.063Z,101226.38
2023-05-08T03:18:13.760Z,101229.94
2023-05-08T03:21:19.478Z,101232.66
2023-05-08T03:24:24.093Z,101221.78
2023-05-08T03:27:28.066Z,101223.47
2023-05-08T03:30:31.487Z,101221.47
2023-05-08T03:33:40.767Z,101225.03
2023-05-08T03:36:42.596Z,101219.59
2023-05-08T03:39:44.531Z,101223.22
2023-05-08T03:42:47.133Z,101218.44
2023-05-08T03:45:50.502Z,101219.47
2023-05-08T03:48:53.736Z,101215.72
2023-05-08T03:51:56.668Z,101216.59
2023-05-08T03:54:58.422Z,101216.59
2023-05-08T03:58:08.127Z,101217.28
2023-05-08T04:01:32.425Z,101211.84
2023-05-08T04:04:38.633Z,101219.16
2023-05-08T04:07:50.893Z,101213.72
2023-05-08T04:11:06.652Z,101213.72
2023-05-08T04:14:13.352Z,101219.16
2023-05-08T04:17:16.610Z,101225.75
2023-05-08T04:20:22.141Z,101225.75
2023-05-08T04:23:25.173Z,101231.38
2023-05-08T04:26:29.396Z,101231.38
2023-05-08T04:29:33.304Z,101236.81
2023-05-08T04:32:36.412Z,101234.09
2023-05-08T04:35:39.331Z,101234.09
2023-05-08T04:38:41.663Z,101238.66
2023-05-08T04:41:44.673Z,101241.53
2023-05-08T04:44:48.139Z,101244.09
2023-05-08T04:47:49.818Z,101244.09
2023-05-08T04:50:51.711Z,101247.97
2023-05-08T04:53:53.172Z,101245.25
2023-05-08T04:56:54.758Z,101244.41
2023-05-08T04:59:56.331Z,101238.13
2023-05-08T05:02:58.916Z,101243.69
2023-05-08T05:06:02.478Z,101241.84
2023-05-08T05:09:05.134Z,101252.03
2023-05-08T05:12:07.384Z,101251.16
2023-05-08T05:15:10.690Z,101241.28
2023-05-08T05:18:13.516Z,101241.44
2023-05-08T05:21:15.124Z,101246.88
2023-05-08T05:24:16.885Z,101245.03
2023-05-08T05:27:21.179Z,101246.19
2023-05-08T05:30:23.374Z,101246.19
2023-05-08T05:33:25.220Z,101242.59
2023-05-08T05:36:26.856Z,101244.44
2023-05-08T05:39:28.552Z,101249.88
2023-05-08T05:42:30.115Z,101251.75
2023-05-08T05:45:33.623Z,101253.63
2023-05-08T05:48:36.152Z,101256.47
2023-05-08T05:51:37.935Z,101262.81
2023-05-08T05:54:41.377Z,101273.69
2023-05-08T05:57:43.372Z,101275.69
2023-05-08T06:00:45.180Z,101276.53
2023-05-08T06:03:47.515Z,101272.97
2023-05-08T06:06:49.194Z,101279.41
2023-05-08T06:09:51.158Z,101270.38
2023-05-08T06:12:53.384Z,101273.28
2023-05-08T06:15:58.876Z,101283.97
2023-05-08T06:19:00.544Z,101290.44
2023-05-08T06:22:02.973Z,101294.00
2023-05-08T06:25:06.955Z,101293.31
2023-05-08T06:28:08.429Z,101287.84
2023-05-08T06:31:09.946Z,101286.16
2023-05-08T06:34:11.587Z,101286.00
2023-05-08T06:37:13.175Z,101277.16
2023-05-08T06:40:14.911Z,101288.03
2023-05-08T06:43:17.042Z,101282.59
2023-05-08T06:46:18.630Z,101286.28
2023-05-08T06:49:20.226Z,101282.72
2023-05-08T06:52:21.854Z,101281.72
2023-05-08T06:55:23.462Z,101285.31
2023-05-08T06:58:24.973Z,101285.44
2023-05-08T07:01:26.478Z,101287.31
2023-05-08T07:04:29.093Z,101299.19
2023-05-08T07:07:31.663Z,101291.03
2023-05-08T07:10:33.288Z,101293.75
2023-05-08T07:13:34.859Z,101295.59
2023-05-08T07:16:37.619Z,101283.03
2023-05-08T07:19:39.165Z,101280.31
2023-05-08T07:22:40.704Z,101286.59
2023-05-08T07:25:42.217Z,101284.03
2023-05-08T07:28:43.716Z,101281.28
2023-05-08T07:31:46.368Z,101282.19
2023-05-08T07:34:47.951Z,101276.75
2023-05-08T07:37:49.959Z,101275.84
2023-05-08T07:40:53.100Z,101284.91
2023-05-08T07:43:54.600Z,101286.72
2023-05-08T07:46:56.147Z,101292.19
2023-05-08T07:49:57.664Z,101298.50
2023-05-08T07:52:59.119Z,101289.47
2023-05-08T07:56:00.615Z,101289.47
2023-05-08T07:59:02.130Z,101292.19
2023-05-08T08:02:03.626Z,101293.06
2023-05-08T08:05:06.034Z,101298.50
2023-05-08T08:08:07.532Z,101303.06
2023-05-08T08:11:09.138Z,101298.50
2023-05-08T08:14:10.727Z,101298.50
2023-05-08T08:17:12.277Z,101295.78
2023-05-08T08:20:14.301Z,101304.78
2023-05-08T08:23:15.770Z,101291.31
2023-05-08T08:26:17.242Z,101296.75
2023-05-08T08:29:18.790Z,101285.03
2023-05-08T08:32:20.312Z,101291.31
2023-05-08T08:35:26.425Z,101285.03
2023-05-08T08:38:27.895Z,101288.59
2023-05-08T08:41:29.531Z,101285.03
2023-05-08T08:44:31.104Z,101287.75
2023-05-08T08:47:41.234Z,101274.03
2023-05-08T08:50:47.291Z,101273.13
2023-05-08T08:53:51.027Z,101274.16
2023-05-08T08:56:53.382Z,101274.16
2023-05-08T08:59:56.023Z,101273.31
2023-05-08T09:02:58.021Z,101274.16
2023-05-08T09:06:01.507Z,101269.75
2023-05-08T09:09:04.141Z,101260.56
2023-05-08T09:12:05.970Z,101256.13
2023-05-08T09:15:07.736Z,101262.44
2023-05-08T09:18:09.257Z,101259.84
2023-05-08T09:21:11.294Z,101266.13
2023-05-08T09:24:12.872Z,101251.69
2023-05-08T09:27:22.371Z,101257.84
2023-05-08T09:30:23.951Z,101255.25
2023-05-08T09:33:27.249Z,101259.72
2023-05-08T09:36:29.198Z,101259.72
2023-05-08T09:39:30.776Z,101255.25
2023-05-08T09:42:38.776Z,101257.84
2023-05-08T09:45:41.444Z,101255.25
2023-05-08T09:48:42.985Z,101244.38
2023-05-08T09:51:54.756Z,101247.97
2023-05-08T09:55:01.742Z,101244.38
2023-05-08T09:58:04.120Z,101236.41
2023-05-08T10:01:05.796Z,101240.97
2023-05-08T10:04:07.340Z,101241.13
2023-05-08T10:07:08.907Z,101237.38
2023-05-08T10:10:10.880Z,101243.69
2023-05-08T10:13:12.826Z,101238.25
2023-05-08T10:16:17.085Z,101239.13
2023-05-08T10:19:20.725Z,101240.97
2023-05-08T10:22:25.191Z,101253.69
2023-05-08T10:25:32.174Z,101237.25
2023-05-08T10:28:40.817Z,101230.78
2023-05-08T10:31:45.120Z,101227.22
2023-05-08T10:34:52.284Z,101227.94
2023-05-08T10:37:54.984Z,101224.34
2023-05-08T10:41:01.169Z,101231.50
2023-05-08T10:44:03.595Z,101226.91
2023-05-08T10:47:26.722Z,101227.63
2023-05-08T10:50:59.046Z,101211.16
2023-05-08T10:54:08.949Z,101215.59
2023-05-08T10:57:11.919Z,101213.16
2023-05-08T11:00:14.057Z,101211.31
2023-05-08T11:03:29.893Z,101204.00
2023-05-08T11:06:42.995Z,101213.03
2023-05-08T11:09:48.242Z,101208.28
2023-05-08T11:12:51.345Z,101209.44
2023-05-08T11:15:52.939Z,101198.72
2023-05-08T11:19:24.733Z,101195.00
2023-05-08T11:22:28.949Z,101198.72
2023-05-08T11:25:43.357Z,101200.59
2023-05-08T11:28:54.332Z,101204.16
2023-05-08T11:31:56.311Z,101206.31
2023-05-08T11:34:57.846Z,101194.59
2023-05-08T11:38:32.232Z,101196.16
2023-05-08T11:41:33.907Z,101193.59
2023-05-08T11:44:36.212Z,101193.59
2023-05-08T11:47:42.656Z,101190.00
2023-05-08T11:50:44.071Z,101191.88
2023-05-08T11:53:45.870Z,101200.03
2023-05-08T11:56:48.764Z,101200.03
2023-05-08T11:59:51.867Z,101197.31
2023-05-08T12:02:53.425Z,101202.03
2023-05-08T12:05:58.986Z,101205.47
2023-05-08T12:09:01.686Z,101200.19
2023-05-08T12:12:03.278Z,101199.47
2023-05-08T12:15:15.315Z,101202.91
2023-05-08T12:18:17.283Z,101199.47
2023-05-08T12:21:19.513Z,101199.47
2023-05-08T12:24:25.339Z,101201.34
2023-05-08T12:27:26.976Z,101195.91
2023-05-08T12:30:28.623Z,101194.03
2023-05-08T12:33:30.588Z,101192.16
2023-05-08T12:36:36.467Z,101195.44
2023-05-08T12:39:37.989Z,101193.72
2023-05-08T12:42:48.520Z,101198.00
2023-05-08T12:45:53.938Z,101199.03
2023-05-08T12:49:04.494Z,101211.47
2023-05-08T12:52:12.704Z,101190.72
2023-05-08T12:55:25.975Z,101203.31
2023-05-08T12:58:30.043Z,101196.00
2023-05-08T13:01:31.624Z,101189.84
2023-05-08T13:04:38.145Z,101187.00
2023-05-08T13:07:40.068Z,101186.28
2023-05-08T13:10:52.583Z,101183.41
2023-05-08T13:13:54.105Z,101174.56
2023-05-08T13:16:55.689Z,101173.69
2023-05-08T13:19:57.327Z,101168.94
2023-05-08T13:22:58.788Z,101170.69
2023-05-08T13:26:00.507Z,101171.53
2023-05-08T13:29:02.059Z,101167.66
2023-05-08T13:32:03.715Z,101156.59
2023-05-08T13:35:05.660Z,101152.91
2023-05-08T13:38:07.178Z,101155.63
2023-05-08T13:41:08.639Z,101153.59
2023-05-08T13:44:10.151Z,101144.56
2023-05-08T13:47:11.650Z,101139.13
2023-05-08T13:50:16.072Z,101143.56
2023-05-08T13:53:17.566Z,101143.56
2023-05-08T13:56:19.036Z,101131.69
2023-05-08T13:59:20.588Z,101134.25
2023-05-08T14:02:22.344Z,101132.38
2023-05-08T14:05:24.010Z,101130.50
2023-05-08T14:08:25.675Z,101126.81
2023-05-08T14:11:27.293Z,101120.34
2023-05-08T14:14:28.762Z,101121.91
2023-05-08T14:17:30.508Z,101115.28
2023-05-08T14:20:31.977Z,101111.41
2023-05-08T14:23:35.041Z,101114.00
2023-05-08T14:26:36.548Z,101118.41
2023-05-08T14:29:38.076Z,101121.00
2023-05-08T14:32:39.510Z,101118.28
2023-05-08T14:35:43.179Z,101116.53
2023-05-08T14:38:44.653Z,101104.81
2023-05-08T14:42:05.237Z,101105.66
2023-05-08T14:45:08.368Z,101104.81
2023-05-08T14:48:10.058Z,101102.09
2023-05-08T14:51:13.760Z,101096.50
2023-05-08T14:54:15.323Z,101094.63
2023-05-08T14:57:16.875Z,101089.91
2023-05-08T15:00:18.772Z,101084.47
2023-05-08T15:03:20.397Z,101087.84
2023-05-08T15:06:23.348Z,101086.00
2023-05-08T15:09:24.832Z,101079.53
2023-05-08T15:12:26.431Z,101080.41
2023-05-08T15:15:27.999Z,101082.28
2023-05-08T15:18:29.492Z,101082.28
2023-05-08T15:21:31.117Z,101088.56
2023-05-08T15:24:32.658Z,101085.84
2023-05-08T15:27:34.120Z,101085.69
2023-05-08T15:30:35.630Z,101072.22
2023-05-08T15:33:37.138Z,101069.50
2023-05-08T15:36:38.639Z,101070.34
2023-05-08T15:39:40.390Z,101060.34
2023-05-08T15:42:41.887Z,101063.06
2023-05-08T15:45:43.381Z,101067.34
2023-05-08T15:48:44.855Z,101058.31
2023-05-08T15:51:46.358Z,101058.16
2023-05-08T15:54:47.951Z,101059.19
2023-05-08T15:57:49.484Z,101060.19
2023-05-08T16:00:51.038Z,101054.75
2023-05-08T16:03:52.519Z,101056.63
2023-05-08T16:06:54.082Z,101058.50
2023-05-08T16:09:55.604Z,101050.31
2023-05-08T16:12:57.103Z,101054.75
2023-05-08T16:16:04.174Z,101052.88
2023-05-08T16:19:05.767Z,101054.59
2023-05-08T16:22:07.307Z,101051.03
2023-05-08T16:25:09.187Z,101059.19
2023-05-08T16:28:10.637Z,101051.03
2023-05-08T16:31:12.234Z,101054.59
2023-05-08T16:34:13.755Z,101052.03
2023-05-08T16:37:15.549Z,101058.16
2023-05-08T16:40:17.106Z,101064.63
2023-05-08T16:43:18.571Z,101061.91
2023-05-08T16:46:29.228Z,101062.75
2023-05-08T16:49:31.712Z,101061.91
2023-05-08T16:52:33.230Z,101062.59
2023-05-08T16:55:34.712Z,101056.16
2023-05-08T16:58:36.992Z,101055.13
2023-05-08T17:01:38.595Z,101051.56
2023-05-08T17:04:40.168Z,101053.44
2023-05-08T17:07:41.635Z,101054.28
2023-05-08T17:10:43.152Z,101054.13
2023-05-08T17:13:46.111Z,101056.69
2023-05-08T17:16:47.641Z,101053.81
2023-05-08T17:19:49.147Z,101049.06
2023-05-08T17:22:53.086Z,101055.22
2023-05-08T17:25:59.131Z,101053.38
2023-05-08T17:29:00.693Z,101049.63
2023-05-08T17:32:02.388Z,101048.59
2023-05-08T17:35:04.151Z,101050.34
2023-05-08T17:38:05.681Z,101050.34
2023-05-08T17:41:07.184Z,101051.19
2023-05-08T17:44:08.674Z,101058.31
2023-05-08T17:47:10.262Z,101060.06
2023-05-08T17:50:11.988Z,101061.75
2023-05-08T17:53:13.802Z,101051.56
2023-05-08T17:56:20.226Z,101060.75
2023-05-08T17:59:21.729Z,101066.72
2023-05-08T18:02:23.248Z,101059.59
2023-05-08T18:05:24.870Z,101064.00
2023-05-08T18:08:26.355Z,101058.41
2023-05-08T18:11:28.009Z,101063.69
2023-05-08T18:14:33.902Z,101057.91
2023-05-08T18:17:35.465Z,101060.63
2023-05-08T18:20:36.952Z,101062.38
2023-05-08T18:23:38.519Z,101063.91
2023-05-08T18:26:40.045Z,101062.03
2023-05-08T18:29:41.542Z,101064.75
2023-05-08T18:32:43.276Z,101074.47
2023-05-08T18:35:45.067Z,101070.72
2023-05-08T18:38:46.600Z,101071.63
2023-05-08T18:41:48.070Z,101071.44
2023-05-08T18:44:49.582Z,101067.03
2023-05-08T18:47:52.360Z,101078.59
2023-05-08T18:50:58.252Z,101083.03
2023-05-08T18:54:00.245Z,101081.16
2023-05-08T18:57:04.231Z,101072.97
2023-05-08T19:00:06.250Z,101081.00
2023-05-08T19:03:07.845Z,101093.59
2023-05-08T19:06:09.388Z,101076.41
2023-05-08T19:09:11.201Z,101083.72
2023-05-08T19:12:12.658Z,101077.44
2023-05-08T19:15:14.549Z,101082.88
2023-05-08T19:18:17.026Z,101083.03
2023-05-08T19:21:18.513Z,101081.16
2023-05-08T19:24:21.078Z,101076.72
2023-05-08T19:27:22.577Z,101075.00
2023-05-08T19:30:24.247Z,101073.16
2023-05-08T19:33:25.729Z,101071.44
2023-05-08T19:36:27.200Z,101078.75
2023-05-08T19:39:28.680Z,101079.78
2023-05-08T19:42:30.922Z,101078.75
2023-05-08T19:45:32.450Z,101077.06
2023-05-08T19:48:33.987Z,101085.22
2023-05-08T19:51:35.638Z,101083.50
2023-05-08T19:54:37.377Z,101077.34
2023-05-08T19:57:38.816Z,101075.50
2023-05-08T20:00:40.289Z,101077.22
2023-05-08T20:03:41.881Z,101076.50
2023-05-08T20:06:43.524Z,101072.94
2023-05-08T20:09:44.986Z,101068.50
2023-05-08T20:12:46.553Z,101069.34
2023-05-08T20:15:48.178Z,101068.66
2023-05-08T20:18:49.737Z,101071.22
2023-05-08T20:21:51.212Z,101066.63
2023-05-08T20:24:52.716Z,101066.63
2023-05-08T20:27:54.589Z,101063.91
2023-05-08T20:30:56.186Z,101066.78
2023-05-08T20:33:59.443Z,101064.91
2023-05-08T20:37:00.938Z,101065.09
2023-05-08T20:40:04.696Z,101059.78
2023-05-08T20:43:06.333Z,101058.09
2023-05-08T20:46:08.184Z,101058.09
2023-05-08T20:49:09.716Z,101053.63
2023-05-08T20:52:11.172Z,101062.84
2023-05-08T20:55:12.778Z,101067.25
2023-05-08T20:58:14.433Z,101060.25
2023-05-08T21:01:16.963Z,101062.97
2023-05-08T21:04:20.176Z,101064.16
2023-05-08T21:07:21.668Z,101055.13
2023-05-08T21:10:23.826Z,101063.31
2023-05-08T21:13:25.476Z,101060.56
2023-05-08T21:16:27.139Z,101055.31
2023-05-08T21:19:31.399Z,101056.16
2023-05-08T21:22:33.903Z,101053.59
2023-05-08T21:25:49.823Z,101045.59
2023-05-08T21:28:52.459Z,101043.88
2023-05-08T21:31:54.235Z,101044.72
2023-05-08T21:34:56.181Z,101036.72
2023-05-08T21:37:57.779Z,101039.44
2023-05-08T21:41:06.526Z,101037.56
2023-05-08T21:44:10.392Z,101027.88
2023-05-08T21:47:11.945Z,101027.88
2023-05-08T21:50:13.422Z,101022.41
2023-05-08T21:53:14.924Z,101027.00
2023-05-08T21:56:16.824Z,101026.16
2023-05-08T21:59:18.605Z,101021.72
2023-05-08T22:02:20.250Z,101028.16
2023-05-08T22:05:23.373Z,101021.72
2023-05-08T22:08:24.854Z,101017.28
2023-05-08T22:11:26.343Z,101015.53
2023-05-08T22:14:27.862Z,101005.69
2023-05-08T22:17:29.427Z,101011.13
2023-05-08T22:20:30.998Z,101008.41
2023-05-08T22:23:34.257Z,101008.41
2023-05-08T22:26:35.757Z,101009.56
2023-05-08T22:29:37.273Z,101013.13
2023-05-08T22:32:38.853Z,101005.81
2023-05-08T22:35:40.484Z,100998.69
2023-05-08T22:38:41.956Z,100994.28
2023-05-08T22:41:43.677Z,100997.00
2023-05-08T22:44:45.728Z,100988.97
2023-05-08T22:47:47.474Z,100985.41
2023-05-08T22:50:49.678Z,100988.13
2023-05-08T22:53:51.403Z,100988.28
2023-05-08T22:56:52.888Z,100981.97
2023-05-08T22:59:54.323Z,100983.84
2023-05-08T23:02:56.585Z,100983.84
2023-05-08T23:05:58.205Z,100981.13
2023-05-08T23:08:59.731Z,100977.56
2023-05-08T23:12:01.321Z,100978.56
2023-05-08T23:15:03.474Z,100974.84
2023-05-08T23:18:05.103Z,100975.84
2023-05-08T23:21:08.011Z,100969.53
2023-05-08T23:24:09.531Z,100973.28
2023-05-08T23:27:11.699Z,100968.69
2023-05-08T23:30:13.526Z,100964.25
2023-05-08T23:33:15.021Z,100960.88
2023-05-08T23:36:16.700Z,100952.69
2023-05-08T23:39:18.256Z,100946.38
2023-05-08T23:42:20.490Z,100943.66
2023-05-08T23:45:22.281Z,100944.69
2023-05-08T23:48:25.577Z,100944.69
2023-05-08T23:51:27.022Z,100940.28
2023-05-08T23:54:28.529Z,100931.22
2023-05-08T23:57:30.005Z,100937.69
